createdAt,value
2018-06-25T15:27:52.707Z,3.4
2018-06-25T15:28:50.357Z,3.3
2018-06-25T15:33:44.977Z,3.3
2018-06-25T15:34:44.662Z,3.2
2018-06-25T15:35:48.222Z,3.2
2018-06-25T16:14:46.635Z,3
2018-06-25T16:15:48.281Z,3
2018-06-25T16:16:52.570Z,3
2018-06-25T16:18:56.394Z,3
2018-06-25T16:19:56.991Z,2.9
2018-06-25T16:20:58.522Z,2.9
2018-06-25T16:24:02.951Z,2.9
2018-06-25T16:25:03.608Z,2.9
2018-06-25T16:26:05.197Z,2.9
2018-06-25T16:27:18.893Z,2.9
2018-06-25T16:29:40.955Z,2.9
2018-06-25T16:30:36.904Z,2.9
2018-06-25T16:31:35.069Z,2.9
2018-06-25T16:32:33.697Z,2.9
2018-06-25T16:33:35.599Z,2.9
2018-06-25T16:35:35.171Z,2.6
2018-06-25T16:37:38.649Z,2.6
2018-06-25T16:38:39.410Z,2.6
2018-06-25T16:40:37.287Z,2.6
2018-06-25T16:42:38.165Z,2.6
2018-06-25T16:43:38.345Z,2.6
2018-06-25T16:44:40.914Z,2.8
2018-06-25T16:45:43.285Z,2.8
2018-06-25T16:46:47.235Z,2.8
2018-06-25T16:47:45.549Z,2.8
2018-06-25T16:47:53.646Z,2.8
2018-06-25T16:48:51.503Z,2.8
2018-06-25T16:49:50.541Z,2.8
2018-06-25T16:53:47.602Z,2.8
2018-06-25T16:54:45.378Z,2.4
2018-06-25T16:55:42.814Z,2.4
2018-06-25T16:56:44.671Z,2.4
2018-06-25T16:57:43.017Z,2.4
2018-06-25T16:58:40.903Z,2.4
2018-06-25T16:59:50.904Z,2.7
2018-06-25T17:00:48.656Z,2.7
2018-06-25T17:01:46.606Z,2.7
2018-06-25T17:03:46.964Z,2.7
2018-06-25T17:04:51.382Z,2.8
2018-06-25T17:05:54.991Z,2.8
2018-06-25T17:06:03.162Z,2.8
2018-06-25T17:07:14.320Z,2.8
2018-06-25T17:08:13.247Z,2.8
2018-06-25T17:10:14.449Z,2.7
2018-06-25T17:12:15.822Z,2.7
2018-06-25T17:13:14.638Z,2.7
2018-06-25T17:14:12.817Z,2.2
2018-06-25T17:15:18.752Z,2.2
2018-06-25T17:16:17.098Z,2.2
2018-06-25T17:17:15.095Z,2.2
2018-06-25T17:18:12.782Z,2.2
2018-06-25T17:19:10.838Z,2.4
2018-06-25T17:20:10.113Z,2.4
2018-06-25T17:21:07.676Z,2.4
2018-06-25T17:22:09.620Z,2.4
2018-06-25T17:25:09.130Z,2.4
2018-06-25T17:27:12.250Z,2.4
2018-06-25T17:30:09.632Z,2.2
2018-06-25T17:32:05.534Z,2.2
2018-06-25T17:32:14.723Z,2.2
2018-06-25T17:33:12.084Z,2.2
2018-06-25T17:34:11.551Z,2.3
2018-06-25T17:36:24.283Z,2.3
2018-06-25T17:37:23.483Z,2.3
2018-06-25T17:38:23.311Z,2.3
2018-06-25T17:41:38.312Z,2.7
2018-06-25T17:42:36.846Z,2.7
2018-06-25T17:43:38.323Z,2.7
2018-06-25T17:44:35.666Z,2.3
2018-06-25T17:45:40.991Z,2.3
2018-06-25T17:46:38.617Z,2.3
2018-06-25T17:47:36.987Z,2.3
2018-06-25T17:48:48.798Z,2.3
2018-06-25T17:49:54.194Z,2.7
2018-06-25T17:51:55.036Z,2.7
2018-06-25T17:52:54.092Z,2.7
2018-06-25T17:53:54.529Z,2.7
2018-06-25T17:54:53.330Z,2.4
2018-06-25T17:55:50.678Z,2.4
2018-06-25T17:56:55.153Z,2.4
2018-06-25T17:57:52.951Z,2.4
2018-06-25T17:58:55.605Z,2.4
2018-06-25T17:59:56.628Z,2.5
2018-06-25T18:00:58.422Z,2.5
2018-06-25T18:01:58.452Z,2.5
2018-06-25T18:03:01.606Z,2.5
2018-06-25T18:04:00.120Z,2.5
2018-06-25T18:05:01.912Z,2.3
2018-06-25T18:06:01.255Z,2.3
2018-06-25T18:07:02.379Z,2.3
2018-06-25T18:08:00.059Z,2.3
2018-06-25T18:10:05.319Z,2.3
2018-06-25T18:10:13.468Z,2.3
2018-06-25T18:11:20.156Z,2.3
2018-06-25T18:12:19.132Z,2.3
2018-06-25T18:13:16.610Z,2.3
2018-06-25T18:15:18.591Z,2.2
2018-06-25T18:16:18.542Z,2.2
2018-06-25T18:17:16.057Z,2.2
2018-06-25T18:18:19.237Z,2.2
2018-06-25T18:19:16.912Z,2.4
2018-06-25T18:20:20.908Z,2.4
2018-06-25T18:21:19.640Z,2.4
2018-06-25T18:22:19.798Z,2.4
2018-06-25T18:23:17.230Z,2.4
2018-06-25T18:24:15.011Z,2.7
2018-06-25T18:25:16.065Z,2.7
2018-06-25T18:26:16.979Z,2.7
2018-06-25T18:27:26.178Z,2.7
2018-06-25T18:28:23.479Z,2.7
2018-06-25T18:29:26.584Z,2.3
2018-06-25T18:30:25.649Z,2.3
2018-06-25T18:31:27.154Z,2.3
2018-06-25T18:32:24.861Z,2.3
2018-06-25T18:35:31.946Z,2.3
2018-06-25T18:37:36.479Z,2.3
2018-06-25T18:38:34.433Z,2.3
2018-06-25T18:38:42.501Z,2.3
2018-06-25T18:39:42.214Z,2.1
2018-06-25T18:40:40.205Z,2.1
2018-06-25T18:41:37.994Z,2.1
2018-06-25T18:43:48.148Z,2.1
2018-06-25T18:44:53.545Z,2.2
2018-06-25T18:47:51.113Z,2.2
2018-06-25T18:48:53.655Z,2.2
2018-06-25T18:49:56.361Z,2.4
2018-06-25T18:50:54.468Z,2.4
2018-06-25T18:52:54.754Z,2.4
2018-06-25T18:53:52.503Z,2.4
2018-06-25T18:54:52.914Z,2.8
2018-06-25T18:55:50.556Z,2.8
2018-06-25T18:56:57.944Z,2.8
2018-06-25T18:58:00.642Z,2.8
2018-06-25T18:59:01.543Z,2.8
2018-06-25T19:00:57.643Z,2.9
2018-06-25T19:01:59.653Z,2.9
2018-06-25T19:02:57.459Z,2.9
2018-06-25T19:03:55.279Z,2.9
2018-06-25T19:04:58.203Z,2.4
2018-06-25T19:08:07.917Z,2.4
2018-06-25T19:09:08.132Z,2.4
2018-06-25T19:10:05.399Z,2.7
2018-06-25T19:12:04.317Z,2.7
2018-06-25T19:13:06.324Z,2.7
2018-06-25T19:14:08.140Z,2.7
2018-06-25T19:15:06.655Z,2.7
2018-06-25T19:18:06.606Z,2.7
2018-06-25T19:20:14.756Z,2.7
2018-06-25T19:21:24.015Z,2.7
2018-06-25T19:22:28.842Z,2.7
2018-06-25T19:23:38.484Z,2.7
2018-06-25T19:25:34.475Z,2.4
2018-06-25T19:26:32.421Z,2.4
2018-06-25T19:27:30.017Z,2.4
2018-06-25T19:28:29.168Z,2.4
2018-06-25T19:29:28.189Z,2.4
2018-06-25T19:30:27.335Z,2.4
2018-06-25T19:31:31.327Z,2.4
2018-06-25T19:33:35.227Z,2.4
2018-06-25T19:35:31.653Z,2.8
2018-06-25T19:36:31.089Z,2.8
2018-06-25T19:37:29.232Z,2.8
2018-06-25T19:38:32.616Z,2.8
2018-06-25T19:39:34.118Z,2.7
2018-06-25T19:40:33.410Z,2.7
2018-06-25T19:41:40.064Z,2.7
2018-06-25T19:42:38.734Z,2.7
2018-06-25T19:43:38.844Z,2.7
2018-06-25T19:44:39.461Z,2.6
2018-06-25T19:45:37.992Z,2.6
2018-06-25T19:46:43.289Z,2.6
2018-06-25T19:47:41.762Z,2.6
2018-06-25T19:49:48.023Z,2.5
2018-06-25T19:50:48.296Z,2.5
2018-06-25T19:52:52.260Z,2.5
2018-06-25T19:53:50.479Z,2.5
2018-06-25T19:55:02.881Z,2.6
2018-06-25T19:56:04.084Z,2.6
2018-06-25T19:57:02.056Z,2.6
2018-06-25T19:58:01.045Z,2.6
2018-06-25T19:59:00.505Z,2.6
2018-06-25T20:00:02.832Z,2.6
2018-06-25T20:01:04.716Z,2.6
2018-06-25T20:02:02.285Z,2.6
2018-06-25T20:03:05.900Z,2.6
2018-06-25T20:04:03.464Z,2.6
2018-06-25T20:05:02.337Z,2.5
2018-06-25T20:06:02.134Z,2.5
2018-06-25T20:06:59.749Z,2.5
2018-06-25T20:08:02.620Z,2.5
2018-06-25T20:09:00.259Z,2.5
2018-06-25T20:10:05.320Z,2.5
2018-06-25T20:11:12.761Z,2.5
2018-06-25T20:12:10.661Z,2.5
2018-06-25T20:13:19.969Z,2.5
2018-06-25T20:14:23.450Z,2.6
2018-06-25T20:15:21.321Z,2.6
2018-06-25T20:16:20.499Z,2.6
2018-06-25T20:17:20.393Z,2.6
2018-06-25T20:18:18.322Z,2.6
2018-06-25T20:19:16.526Z,2.4
2018-06-25T20:20:25.953Z,2.4
2018-06-25T20:21:25.144Z,2.4
2018-06-25T20:22:26.693Z,2.4
2018-06-25T20:23:27.510Z,2.4
2018-06-25T20:24:28.819Z,2.3
2018-06-25T20:25:26.535Z,2.3
2018-06-25T20:26:24.904Z,2.3
2018-06-25T20:26:33.979Z,2.3
2018-06-25T20:27:34.325Z,2.3
2018-06-25T20:29:30.280Z,2.3
2018-06-25T20:31:26.914Z,2.3
2018-06-25T20:32:27.150Z,2.3
2018-06-25T20:33:28.362Z,2.3
2018-06-25T20:34:29.799Z,2.6
2018-06-25T20:35:36.865Z,2.6
2018-06-25T20:36:48.287Z,2.6
2018-06-25T20:37:46.356Z,2.6
2018-06-25T20:38:46.238Z,2.6
2018-06-25T20:38:55.381Z,2.6
2018-06-25T20:39:54.359Z,2.8
2018-06-25T20:40:53.465Z,2.8
2018-06-25T20:41:55.211Z,2.8
2018-06-25T20:42:58.496Z,2.8
2018-06-25T20:45:00.687Z,2.3
2018-06-25T20:45:57.979Z,2.3
2018-06-25T20:47:00.236Z,2.3
2018-06-25T20:48:05.860Z,2.3
2018-06-25T20:50:09.100Z,2.4
2018-06-25T20:51:09.408Z,2.4
2018-06-25T20:52:08.908Z,2.4
2018-06-25T20:53:20.907Z,2.4
2018-06-25T20:54:34.058Z,2.5
2018-06-25T20:55:33.689Z,2.5
2018-06-25T20:56:45.101Z,2.5
2018-06-25T20:57:45.262Z,2.5
2018-06-25T20:59:50.091Z,2.2
2018-06-25T20:59:58.267Z,2.2
2018-06-25T21:01:00.308Z,2.2
2018-06-25T21:02:03.357Z,2.2
2018-06-25T21:03:07.897Z,2.2
2018-06-25T21:04:05.433Z,2.2
2018-06-25T21:05:04.851Z,2.4
2018-06-25T21:06:02.449Z,2.4
2018-06-25T21:07:01.295Z,2.4
2018-06-25T21:08:59.740Z,2.4
2018-06-25T21:09:57.633Z,2.5
2018-06-25T21:10:58.032Z,2.5
2018-06-25T21:12:58.118Z,2.5
2018-06-25T21:13:57.764Z,2.5
2018-06-25T21:14:58.623Z,2.4
2018-06-25T21:16:01.576Z,2.4
2018-06-25T21:17:04.060Z,2.4
2018-06-25T21:18:01.631Z,2.4
2018-06-25T21:19:01.778Z,2.4
2018-06-25T21:19:10.901Z,2.4
2018-06-25T21:20:11.862Z,2.2
2018-06-25T21:21:15.050Z,2.2
2018-06-25T21:22:15.578Z,2.2
2018-06-25T21:23:15.769Z,2.2
2018-06-25T21:24:21.500Z,2.4
2018-06-25T21:25:18.851Z,2.4
2018-06-25T21:26:16.662Z,2.4
2018-06-25T21:27:14.514Z,2.4
2018-06-25T21:28:13.826Z,2.4
2018-06-25T21:29:13.683Z,2.4
2018-06-25T21:30:17.310Z,2
2018-06-25T21:31:20.406Z,2
2018-06-25T21:32:20.642Z,2
2018-06-25T21:33:18.891Z,2
2018-06-25T21:34:17.706Z,2
2018-06-25T21:36:24.107Z,2.3
2018-06-25T21:37:27.161Z,2.3
2018-06-25T21:37:35.232Z,2.3
2018-06-25T21:39:37.406Z,2.3
2018-06-25T21:40:35.839Z,2.3
2018-06-25T21:41:34.607Z,2.3
2018-06-25T21:42:40.274Z,2.3
2018-06-25T21:45:46.644Z,2.1
2018-06-25T21:46:44.519Z,2.1
2018-06-25T21:47:49.411Z,2.1
2018-06-25T21:48:48.850Z,2.1
2018-06-25T21:50:53.244Z,2.5
2018-06-25T21:53:51.629Z,2.5
2018-06-25T21:54:48.936Z,2.3
2018-06-25T21:55:47.970Z,2.3
2018-06-25T21:55:56.140Z,2.3
2018-06-25T21:57:52.439Z,2.3
2018-06-25T21:59:56.681Z,2.1
2018-06-25T22:00:56.523Z,2.1
2018-06-25T22:01:55.140Z,2.1
2018-06-25T22:03:58.480Z,2.1
2018-06-25T22:04:56.227Z,2
2018-06-25T22:07:59.405Z,2
2018-06-25T22:08:57.037Z,2
2018-06-25T22:09:56.780Z,2.2
2018-06-25T22:10:54.533Z,2.2
2018-06-25T22:11:02.661Z,2.2
2018-06-25T22:12:02.966Z,2.2
2018-06-25T22:13:00.836Z,2.2
2018-06-25T22:13:59.172Z,2.2
2018-06-25T22:14:58.811Z,2.1
2018-06-25T22:16:54.500Z,2.1
2018-06-25T22:17:53.304Z,2.1
2018-06-25T22:18:56.918Z,2.1
2018-06-25T22:19:54.783Z,2
2018-06-25T22:20:52.811Z,2
2018-06-25T22:21:51.837Z,2
2018-06-25T22:22:54.329Z,2
2018-06-25T22:23:52.148Z,2
2018-06-25T22:24:54.647Z,2.2
2018-06-25T22:25:53.521Z,2.2
2018-06-25T22:26:50.938Z,2.2
2018-06-25T22:27:49.306Z,2.2
2018-06-25T22:28:47.867Z,2.2
2018-06-25T22:29:45.084Z,2.2
2018-06-25T22:30:44.852Z,2.2
2018-06-25T22:31:42.977Z,2.2
2018-06-25T22:32:40.141Z,2.2
2018-06-25T22:33:38.286Z,2.2
2018-06-25T22:34:36.190Z,2.5
2018-06-25T22:35:37.394Z,2.5
2018-06-25T22:36:35.575Z,2.5
2018-06-25T22:36:43.711Z,2.5
2018-06-25T22:38:46.270Z,2.5
2018-06-25T22:39:45.276Z,2.3
2018-06-25T22:40:42.599Z,2.3
2018-06-25T22:42:47.640Z,2.3
2018-06-25T22:44:51.540Z,2.2
2018-06-25T22:46:59.341Z,2.2
2018-06-25T22:49:01.840Z,2.2
2018-06-25T22:49:59.761Z,2.3
2018-06-25T22:50:07.881Z,2.3
2018-06-25T22:51:06.411Z,2.3
2018-06-25T22:53:11.465Z,2.3
2018-06-25T22:54:09.587Z,2.3
2018-06-25T22:54:26.810Z,2.1
2018-06-25T22:56:26.249Z,2.1
2018-06-25T22:57:24.236Z,2.1
2018-06-25T22:58:23.919Z,2.1
2018-06-25T23:01:19.746Z,2
2018-06-25T23:02:17.588Z,2
2018-06-25T23:03:29.982Z,2
2018-06-25T23:04:33.678Z,1.9
2018-06-25T23:05:31.550Z,1.9
2018-06-25T23:06:33.387Z,1.9
2018-06-25T23:07:41.462Z,1.9
2018-06-25T23:08:39.748Z,1.9
2018-06-25T23:09:42.851Z,2.3
2018-06-25T23:11:39.113Z,2.3
2018-06-25T23:12:36.909Z,2.3
2018-06-25T23:13:36.983Z,2.3
2018-06-25T23:14:38.599Z,2.3
2018-06-25T23:15:35.216Z,2.3
2018-06-25T23:16:32.696Z,2.3
2018-06-25T23:17:30.639Z,2.3
2018-06-25T23:18:39.467Z,2.3
2018-06-25T23:18:47.555Z,2.3
2018-06-25T23:19:46.662Z,2
2018-06-25T23:20:46.561Z,2
2018-06-25T23:21:45.446Z,2
2018-06-25T23:22:43.424Z,2
2018-06-25T23:23:51.118Z,2
2018-06-25T23:24:48.439Z,2.2
2018-06-25T23:25:45.986Z,2.2
2018-06-25T23:26:46.612Z,2.2
2018-06-25T23:28:42.036Z,2.2
2018-06-25T23:29:39.998Z,2.1
2018-06-25T23:31:51.400Z,2.1
2018-06-25T23:32:49.122Z,2.1
2018-06-25T23:33:48.670Z,2.1
2018-06-25T23:33:57.279Z,2.1
2018-06-25T23:34:55.321Z,2.3
2018-06-25T23:35:55.450Z,2.3
2018-06-25T23:36:58.799Z,2.3
2018-06-25T23:38:01.439Z,2.3
2018-06-25T23:39:01.096Z,2.3
2018-06-25T23:40:06.044Z,2
2018-06-25T23:41:06.557Z,2
2018-06-25T23:42:04.811Z,2
2018-06-25T23:43:03.183Z,2
2018-06-25T23:44:01.892Z,2
2018-06-25T23:44:59.665Z,2.2
2018-06-25T23:46:55.024Z,2.2
2018-06-25T23:47:53.048Z,2.2
2018-06-25T23:48:55.856Z,2.2
2018-06-25T23:49:55.324Z,1.9
2018-06-25T23:50:56.995Z,1.9
2018-06-25T23:51:56.972Z,1.9
2018-06-25T23:54:53.347Z,2.1
2018-06-25T23:55:53.148Z,2.1
2018-06-25T23:57:01.379Z,2.1
2018-06-25T23:59:10.157Z,2.1
